sensor_id;sensor_type;location;lat;lon;timestamp;temperature;humidity
58469;DHT22;44257;44.804;10.220;2023-04-03T00:02:08;9.50;99.90
58469;DHT22;44257;44.804;10.220;2023-04-03T00:04:34;9.50;99.90
58469;DHT22;44257;44.804;10.220;2023-04-03T00:07:00;9.40;99.90
58469;DHT22;44257;44.804;10.220;2023-04-03T00:09:26;9.20;99.90
58469;DHT22;44257;44.804;10.220;2023-04-03T00:11:52;9.10;99.90
58469;DHT22;44257;44.804;10.220;2023-04-03T00:14:17;9.10;99.90
58469;DHT22;44257;44.804;10.220;2023-04-03T00:16:43;9.10;99.90
58469;DHT22;44257;44.804;10.220;2023-04-03T00:19:09;9.10;99.90
58469;DHT22;44257;44.804;10.220;2023-04-03T00:21:37;9.00;99.90
58469;DHT22;44257;44.804;10.220;2023-04-03T00:24:03;9.00;99.90
58469;DHT22;44257;44.804;10.220;2023-04-03T00:26:29;9.00;99.90
58469;DHT22;44257;44.804;10.220;2023-04-03T00:28:55;9.00;99.90
58469;DHT22;44257;44.804;10.220;2023-04-03T00:31:22;9.00;99.90
58469;DHT22;44257;44.804;10.220;2023-04-03T00:33:48;9.00;99.90
58469;DHT22;44257;44.804;10.220;2023-04-03T00:36:14;9.10;99.90
58469;DHT22;44257;44.804;10.220;2023-04-03T00:38:40;9.20;99.90
58469;DHT22;44257;44.804;10.220;2023-04-03T00:41:06;9.20;99.90
58469;DHT22;44257;44.804;10.220;2023-04-03T00:43:32;9.30;99.90
58469;DHT22;44257;44.804;10.220;2023-04-03T00:45:58;9.40;99.90
58469;DHT22;44257;44.804;10.220;2023-04-03T00:48:26;9.40;99.90
58469;DHT22;44257;44.804;10.220;2023-04-03T00:50:53;9.50;99.90
58469;DHT22;44257;44.804;10.220;2023-04-03T00:53:27;9.40;99.90
58469;DHT22;44257;44.804;10.220;2023-04-03T00:55:56;9.40;99.90
58469;DHT22;44257;44.804;10.220;2023-04-03T00:58:32;9.40;99.90
58469;DHT22;44257;44.804;10.220;2023-04-03T01:00:58;9.30;99.90
58469;DHT22;44257;44.804;10.220;2023-04-03T01:03:25;9.30;99.90
58469;DHT22;44257;44.804;10.220;2023-04-03T01:05:52;9.30;99.90
58469;DHT22;44257;44.804;10.220;2023-04-03T01:08:18;9.20;99.90
58469;DHT22;44257;44.804;10.220;2023-04-03T01:10:44;9.20;99.90
58469;DHT22;44257;44.804;10.220;2023-04-03T01:13:24;9.20;99.90
58469;DHT22;44257;44.804;10.220;2023-04-03T01:15:50;9.30;99.90
58469;DHT22;44257;44.804;10.220;2023-04-03T01:18:16;9.20;99.90
58469;DHT22;44257;44.804;10.220;2023-04-03T01:26:02;9.10;99.90
58469;DHT22;44257;44.804;10.220;2023-04-03T01:28:31;9.10;99.90
58469;DHT22;44257;44.804;10.220;2023-04-03T01:33:27;9.00;99.90
58469;DHT22;44257;44.804;10.220;2023-04-03T01:35:52;8.90;99.90
58469;DHT22;44257;44.804;10.220;2023-04-03T01:38:19;8.90;99.90
58469;DHT22;44257;44.804;10.220;2023-04-03T01:40:44;8.80;99.90
58469;DHT22;44257;44.804;10.220;2023-04-03T01:43:11;8.80;99.90
58469;DHT22;44257;44.804;10.220;2023-04-03T01:45:37;8.70;99.90
58469;DHT22;44257;44.804;10.220;2023-04-03T01:48:03;8.70;99.90
58469;DHT22;44257;44.804;10.220;2023-04-03T01:50:29;8.60;99.90
58469;DHT22;44257;44.804;10.220;2023-04-03T01:52:55;8.60;99.90
58469;DHT22;44257;44.804;10.220;2023-04-03T01:55:21;8.60;99.90
58469;DHT22;44257;44.804;10.220;2023-04-03T01:57:47;8.50;99.90
58469;DHT22;44257;44.804;10.220;2023-04-03T02:00:13;8.50;99.90
58469;DHT22;44257;44.804;10.220;2023-04-03T02:02:40;8.50;99.90
58469;DHT22;44257;44.804;10.220;2023-04-03T02:05:07;8.50;99.90
58469;DHT22;44257;44.804;10.220;2023-04-03T02:07:33;8.50;99.90
58469;DHT22;44257;44.804;10.220;2023-04-03T02:09:58;8.40;99.90
58469;DHT22;44257;44.804;10.220;2023-04-03T02:12:25;8.40;99.90
58469;DHT22;44257;44.804;10.220;2023-04-03T02:14:51;8.40;99.90
58469;DHT22;44257;44.804;10.220;2023-04-03T02:17:17;8.40;99.90
58469;DHT22;44257;44.804;10.220;2023-04-03T02:19:43;8.30;99.90
58469;DHT22;44257;44.804;10.220;2023-04-03T02:22:09;8.30;99.90
58469;DHT22;44257;44.804;10.220;2023-04-03T02:24:35;8.20;99.90
58469;DHT22;44257;44.804;10.220;2023-04-03T02:27:01;8.20;99.90
58469;DHT22;44257;44.804;10.220;2023-04-03T02:29:27;8.10;99.90
58469;DHT22;44257;44.804;10.220;2023-04-03T02:31:55;8.10;99.90
58469;DHT22;44257;44.804;10.220;2023-04-03T02:34:22;8.10;99.90
58469;DHT22;44257;44.804;10.220;2023-04-03T02:36:49;8.10;99.90
58469;DHT22;44257;44.804;10.220;2023-04-03T02:39:16;8.00;99.90
58469;DHT22;44257;44.804;10.220;2023-04-03T02:41:41;8.00;99.90
58469;DHT22;44257;44.804;10.220;2023-04-03T02:44:13;8.00;99.90
58469;DHT22;44257;44.804;10.220;2023-04-03T02:46:39;8.00;99.90
58469;DHT22;44257;44.804;10.220;2023-04-03T02:49:05;8.00;99.90
58469;DHT22;44257;44.804;10.220;2023-04-03T02:51:32;8.00;99.90
58469;DHT22;44257;44.804;10.220;2023-04-03T02:53:58;8.00;99.90
58469;DHT22;44257;44.804;10.220;2023-04-03T02:56:27;7.90;99.90
58469;DHT22;44257;44.804;10.220;2023-04-03T02:58:53;7.80;99.90
58469;DHT22;44257;44.804;10.220;2023-04-03T03:01:19;7.80;99.90
58469;DHT22;44257;44.804;10.220;2023-04-03T03:03:45;7.80;99.90
58469;DHT22;44257;44.804;10.220;2023-04-03T03:06:13;7.70;99.90
58469;DHT22;44257;44.804;10.220;2023-04-03T03:08:41;7.60;99.90
58469;DHT22;44257;44.804;10.220;2023-04-03T03:11:07;7.60;99.90
58469;DHT22;44257;44.804;10.220;2023-04-03T03:13:33;7.60;99.90
58469;DHT22;44257;44.804;10.220;2023-04-03T03:16:00;7.60;99.90
58469;DHT22;44257;44.804;10.220;2023-04-03T03:18:27;7.60;99.90
58469;DHT22;44257;44.804;10.220;2023-04-03T03:20:54;7.60;99.90
58469;DHT22;44257;44.804;10.220;2023-04-03T03:23:22;7.60;99.90
58469;DHT22;44257;44.804;10.220;2023-04-03T03:25:49;7.60;99.90
58469;DHT22;44257;44.804;10.220;2023-04-03T03:28:15;7.60;99.90
58469;DHT22;44257;44.804;10.220;2023-04-03T03:30:41;7.50;99.90
58469;DHT22;44257;44.804;10.220;2023-04-03T03:33:07;7.40;99.90
58469;DHT22;44257;44.804;10.220;2023-04-03T03:35:33;7.40;99.90
58469;DHT22;44257;44.804;10.220;2023-04-03T03:38:00;7.40;99.90
58469;DHT22;44257;44.804;10.220;2023-04-03T03:40:26;7.40;99.90
58469;DHT22;44257;44.804;10.220;2023-04-03T03:42:52;7.40;99.90
58469;DHT22;44257;44.804;10.220;2023-04-03T03:45:18;7.30;99.90
58469;DHT22;44257;44.804;10.220;2023-04-03T03:47:43;7.10;99.90
58469;DHT22;44257;44.804;10.220;2023-04-03T03:50:11;7.10;99.90
58469;DHT22;44257;44.804;10.220;2023-04-03T03:52:36;7.00;99.90
58469;DHT22;44257;44.804;10.220;2023-04-03T03:55:02;7.00;99.90
58469;DHT22;44257;44.804;10.220;2023-04-03T03:57:28;6.90;99.90
58469;DHT22;44257;44.804;10.220;2023-04-03T03:59:55;6.80;99.90
58469;DHT22;44257;44.804;10.220;2023-04-03T04:02:20;6.80;99.90
58469;DHT22;44257;44.804;10.220;2023-04-03T04:04:46;6.80;99.90
58469;DHT22;44257;44.804;10.220;2023-04-03T04:07:13;6.80;99.90
58469;DHT22;44257;44.804;10.220;2023-04-03T04:09:39;6.80;99.90
58469;DHT22;44257;44.804;10.220;2023-04-03T04:12:07;6.80;99.90
58469;DHT22;44257;44.804;10.220;2023-04-03T04:14:34;6.80;99.90
58469;DHT22;44257;44.804;10.220;2023-04-03T04:17:00;6.80;99.90
58469;DHT22;44257;44.804;10.220;2023-04-03T04:19:28;6.70;99.90
58469;DHT22;44257;44.804;10.220;2023-04-03T04:21:54;6.80;99.90
58469;DHT22;44257;44.804;10.220;2023-04-03T04:24:20;6.70;99.90
58469;DHT22;44257;44.804;10.220;2023-04-03T04:26:49;6.70;99.90
58469;DHT22;44257;44.804;10.220;2023-04-03T04:29:16;6.70;99.90
58469;DHT22;44257;44.804;10.220;2023-04-03T04:31:45;6.70;99.90
58469;DHT22;44257;44.804;10.220;2023-04-03T04:34:10;6.70;99.90
58469;DHT22;44257;44.804;10.220;2023-04-03T04:36:39;6.70;99.90
58469;DHT22;44257;44.804;10.220;2023-04-03T04:39:05;6.70;99.90
58469;DHT22;44257;44.804;10.220;2023-04-03T04:41:31;6.60;99.90
58469;DHT22;44257;44.804;10.220;2023-04-03T04:43:58;6.60;99.90
58469;DHT22;44257;44.804;10.220;2023-04-03T04:46:25;6.50;99.90
58469;DHT22;44257;44.804;10.220;2023-04-03T04:48:55;6.50;99.90
58469;DHT22;44257;44.804;10.220;2023-04-03T04:51:22;6.50;99.90
58469;DHT22;44257;44.804;10.220;2023-04-03T04:53:48;6.50;99.90
58469;DHT22;44257;44.804;10.220;2023-04-03T04:56:16;6.40;99.90
58469;DHT22;44257;44.804;10.220;2023-04-03T04:58:42;6.40;99.90
58469;DHT22;44257;44.804;10.220;2023-04-03T05:01:10;6.30;99.90
58469;DHT22;44257;44.804;10.220;2023-04-03T05:03:43;6.30;99.90
58469;DHT22;44257;44.804;10.220;2023-04-03T05:06:09;6.40;99.90
58469;DHT22;44257;44.804;10.220;2023-04-03T05:08:36;6.30;99.90
58469;DHT22;44257;44.804;10.220;2023-04-03T05:11:02;6.40;99.90
58469;DHT22;44257;44.804;10.220;2023-04-03T05:13:29;6.40;99.90
58469;DHT22;44257;44.804;10.220;2023-04-03T05:15:56;6.40;99.90
58469;DHT22;44257;44.804;10.220;2023-04-03T05:18:22;6.40;99.90
58469;DHT22;44257;44.804;10.220;2023-04-03T05:20:49;6.40;99.90
58469;DHT22;44257;44.804;10.220;2023-04-03T05:23:19;6.40;99.90
58469;DHT22;44257;44.804;10.220;2023-04-03T05:25:46;6.40;99.90
58469;DHT22;44257;44.804;10.220;2023-04-03T05:28:13;6.40;99.90
58469;DHT22;44257;44.804;10.220;2023-04-03T05:30:40;6.40;99.90
58469;DHT22;44257;44.804;10.220;2023-04-03T05:33:07;6.40;99.90
58469;DHT22;44257;44.804;10.220;2023-04-03T05:35:45;6.40;99.90
58469;DHT22;44257;44.804;10.220;2023-04-03T05:38:16;6.50;99.90
58469;DHT22;44257;44.804;10.220;2023-04-03T05:40:42;6.60;99.90
58469;DHT22;44257;44.804;10.220;2023-04-03T05:43:08;6.60;99.90
58469;DHT22;44257;44.804;10.220;2023-04-03T05:45:38;6.70;99.90
58469;DHT22;44257;44.804;10.220;2023-04-03T05:48:04;6.90;99.90
58469;DHT22;44257;44.804;10.220;2023-04-03T05:50:30;7.00;99.90
58469;DHT22;44257;44.804;10.220;2023-04-03T05:52:57;7.10;99.90
58469;DHT22;44257;44.804;10.220;2023-04-03T05:55:26;7.30;99.90
58469;DHT22;44257;44.804;10.220;2023-04-03T05:57:53;7.50;99.90
58469;DHT22;44257;44.804;10.220;2023-04-03T06:00:19;8.00;99.90
58469;DHT22;44257;44.804;10.220;2023-04-03T06:02:55;8.70;99.90
58469;DHT22;44257;44.804;10.220;2023-04-03T06:05:23;9.40;99.90
58469;DHT22;44257;44.804;10.220;2023-04-03T06:07:50;10.10;99.90
58469;DHT22;44257;44.804;10.220;2023-04-03T06:10:16;10.80;99.90
58469;DHT22;44257;44.804;10.220;2023-04-03T06:12:43;11.50;99.90
58469;DHT22;44257;44.804;10.220;2023-04-03T06:15:09;12.20;99.90
58469;DHT22;44257;44.804;10.220;2023-04-03T06:17:36;12.80;99.90
58469;DHT22;44257;44.804;10.220;2023-04-03T06:20:03;13.10;99.90
58469;DHT22;44257;44.804;10.220;2023-04-03T06:22:29;13.20;99.90
58469;DHT22;44257;44.804;10.220;2023-04-03T06:24:56;13.20;99.90
58469;DHT22;44257;44.804;10.220;2023-04-03T06:27:22;13.10;99.90
58469;DHT22;44257;44.804;10.220;2023-04-03T06:29:48;13.00;99.90
58469;DHT22;44257;44.804;10.220;2023-04-03T06:32:15;13.00;99.90
58469;DHT22;44257;44.804;10.220;2023-04-03T06:34:41;12.90;99.90
58469;DHT22;44257;44.804;10.220;2023-04-03T06:37:27;12.80;99.90
58469;DHT22;44257;44.804;10.220;2023-04-03T06:39:56;12.80;99.90
58469;DHT22;44257;44.804;10.220;2023-04-03T06:42:23;12.60;99.90
58469;DHT22;44257;44.804;10.220;2023-04-03T06:44:58;12.50;99.90
58469;DHT22;44257;44.804;10.220;2023-04-03T06:47:24;12.40;99.90
58469;DHT22;44257;44.804;10.220;2023-04-03T06:49:50;12.20;99.90
58469;DHT22;44257;44.804;10.220;2023-04-03T06:52:15;12.00;99.90
58469;DHT22;44257;44.804;10.220;2023-04-03T06:54:41;11.90;99.90
58469;DHT22;44257;44.804;10.220;2023-04-03T06:57:07;11.80;99.90
58469;DHT22;44257;44.804;10.220;2023-04-03T06:59:34;11.80;99.90
58469;DHT22;44257;44.804;10.220;2023-04-03T07:02:01;11.70;99.90
58469;DHT22;44257;44.804;10.220;2023-04-03T07:04:26;11.70;99.90
58469;DHT22;44257;44.804;10.220;2023-04-03T07:06:53;11.70;99.90
58469;DHT22;44257;44.804;10.220;2023-04-03T07:09:19;11.70;99.90
58469;DHT22;44257;44.804;10.220;2023-04-03T07:11:46;11.90;99.90
58469;DHT22;44257;44.804;10.220;2023-04-03T07:14:12;12.10;99.90
58469;DHT22;44257;44.804;10.220;2023-04-03T07:16:37;12.20;99.90
58469;DHT22;44257;44.804;10.220;2023-04-03T07:19:03;12.40;99.90
58469;DHT22;44257;44.804;10.220;2023-04-03T07:21:29;12.50;99.90
58469;DHT22;44257;44.804;10.220;2023-04-03T07:23:55;12.80;99.90
58469;DHT22;44257;44.804;10.220;2023-04-03T07:26:21;13.10;99.90
58469;DHT22;44257;44.804;10.220;2023-04-03T07:28:49;13.50;99.90
58469;DHT22;44257;44.804;10.220;2023-04-03T07:31:15;13.90;99.90
58469;DHT22;44257;44.804;10.220;2023-04-03T07:33:43;14.20;99.90
58469;DHT22;44257;44.804;10.220;2023-04-03T07:36:09;14.40;99.90
58469;DHT22;44257;44.804;10.220;2023-04-03T07:38:36;14.50;99.90
58469;DHT22;44257;44.804;10.220;2023-04-03T07:41:02;14.50;99.90
58469;DHT22;44257;44.804;10.220;2023-04-03T07:43:28;14.40;99.90
58469;DHT22;44257;44.804;10.220;2023-04-03T07:45:54;14.40;99.90
58469;DHT22;44257;44.804;10.220;2023-04-03T07:48:25;14.60;99.90
58469;DHT22;44257;44.804;10.220;2023-04-03T07:50:51;14.60;99.90
58469;DHT22;44257;44.804;10.220;2023-04-03T07:53:18;14.70;99.90
58469;DHT22;44257;44.804;10.220;2023-04-03T07:55:47;14.60;99.90
58469;DHT22;44257;44.804;10.220;2023-04-03T07:58:16;14.70;99.90
58469;DHT22;44257;44.804;10.220;2023-04-03T08:00:42;14.70;99.90
58469;DHT22;44257;44.804;10.220;2023-04-03T08:03:10;14.70;99.90
58469;DHT22;44257;44.804;10.220;2023-04-03T08:05:44;14.80;99.90
58469;DHT22;44257;44.804;10.220;2023-04-03T08:08:13;14.90;99.90
58469;DHT22;44257;44.804;10.220;2023-04-03T08:10:39;15.00;99.90
58469;DHT22;44257;44.804;10.220;2023-04-03T08:13:05;15.10;99.90
58469;DHT22;44257;44.804;10.220;2023-04-03T08:15:31;15.20;99.90
58469;DHT22;44257;44.804;10.220;2023-04-03T08:17:58;15.40;99.90
58469;DHT22;44257;44.804;10.220;2023-04-03T08:20:24;15.40;99.90
58469;DHT22;44257;44.804;10.220;2023-04-03T08:22:50;15.50;99.90
58469;DHT22;44257;44.804;10.220;2023-04-03T08:25:16;15.50;99.90
58469;DHT22;44257;44.804;10.220;2023-04-03T08:27:43;15.60;99.90
58469;DHT22;44257;44.804;10.220;2023-04-03T08:30:09;15.80;99.90
58469;DHT22;44257;44.804;10.220;2023-04-03T08:32:36;16.00;99.90
58469;DHT22;44257;44.804;10.220;2023-04-03T08:35:03;16.00;99.90
58469;DHT22;44257;44.804;10.220;2023-04-03T08:37:29;16.00;99.90
58469;DHT22;44257;44.804;10.220;2023-04-03T08:39:55;16.00;99.90
58469;DHT22;44257;44.804;10.220;2023-04-03T08:43:03;15.90;99.90
58469;DHT22;44257;44.804;10.220;2023-04-03T08:45:53;16.00;99.90
58469;DHT22;44257;44.804;10.220;2023-04-03T08:48:20;16.20;99.90
58469;DHT22;44257;44.804;10.220;2023-04-03T08:50:50;16.20;99.90
58469;DHT22;44257;44.804;10.220;2023-04-03T08:53:23;16.30;99.90
58469;DHT22;44257;44.804;10.220;2023-04-03T08:55:51;16.30;99.90
58469;DHT22;44257;44.804;10.220;2023-04-03T08:58:30;16.30;99.90
58469;DHT22;44257;44.804;10.220;2023-04-03T09:01:05;16.50;99.90
58469;DHT22;44257;44.804;10.220;2023-04-03T09:03:38;16.50;99.90
58469;DHT22;44257;44.804;10.220;2023-04-03T09:06:15;16.60;99.90
58469;DHT22;44257;44.804;10.220;2023-04-03T09:09:13;16.70;99.90
58469;DHT22;44257;44.804;10.220;2023-04-03T09:14:54;16.80;99.90
58469;DHT22;44257;44.804;10.220;2023-04-03T09:20:14;17.10;99.90
58469;DHT22;44257;44.804;10.220;2023-04-03T09:22:44;17.20;99.90
58469;DHT22;44257;44.804;10.220;2023-04-03T09:25:17;17.30;99.90
58469;DHT22;44257;44.804;10.220;2023-04-03T09:27:44;17.30;99.90
58469;DHT22;44257;44.804;10.220;2023-04-03T09:30:15;17.40;99.90
58469;DHT22;44257;44.804;10.220;2023-04-03T09:32:43;17.60;99.90
58469;DHT22;44257;44.804;10.220;2023-04-03T09:35:23;17.60;99.90
58469;DHT22;44257;44.804;10.220;2023-04-03T09:40:44;17.70;99.90
58469;DHT22;44257;44.804;10.220;2023-04-03T09:45:45;17.90;99.90
58469;DHT22;44257;44.804;10.220;2023-04-03T09:53:34;17.80;99.90
58469;DHT22;44257;44.804;10.220;2023-04-03T09:56:19;17.90;99.90
58469;DHT22;44257;44.804;10.220;2023-04-03T09:59:05;18.00;99.90
58469;DHT22;44257;44.804;10.220;2023-04-03T10:01:38;18.10;99.90
58469;DHT22;44257;44.804;10.220;2023-04-03T10:06:32;18.40;99.90
58469;DHT22;44257;44.804;10.220;2023-04-03T10:14:54;18.60;99.90
58469;DHT22;44257;44.804;10.220;2023-04-03T10:17:36;18.50;99.90
58469;DHT22;44257;44.804;10.220;2023-04-03T10:20:29;18.30;99.90
58469;DHT22;44257;44.804;10.220;2023-04-03T10:23:26;18.00;99.90
58469;DHT22;44257;44.804;10.220;2023-04-03T10:29:07;17.60;99.90
58469;DHT22;44257;44.804;10.220;2023-04-03T10:34:29;17.70;99.90
58469;DHT22;44257;44.804;10.220;2023-04-03T10:40:01;17.70;99.90
58469;DHT22;44257;44.804;10.220;2023-04-03T10:42:44;17.70;99.90
58469;DHT22;44257;44.804;10.220;2023-04-03T10:50:43;18.00;99.90
58469;DHT22;44257;44.804;10.220;2023-04-03T10:58:52;19.10;99.90
58469;DHT22;44257;44.804;10.220;2023-04-03T11:01:23;19.40;99.90
58469;DHT22;44257;44.804;10.220;2023-04-03T11:04:02;19.50;99.90
58469;DHT22;44257;44.804;10.220;2023-04-03T11:06:36;19.50;99.90
58469;DHT22;44257;44.804;10.220;2023-04-03T11:09:13;19.30;99.90
58469;DHT22;44257;44.804;10.220;2023-04-03T11:11:43;19.20;99.90
58469;DHT22;44257;44.804;10.220;2023-04-03T11:19:42;19.30;99.90
58469;DHT22;44257;44.804;10.220;2023-04-03T11:22:23;19.50;99.90
58469;DHT22;44257;44.804;10.220;2023-04-03T11:27:37;19.30;99.90
58469;DHT22;44257;44.804;10.220;2023-04-03T11:30:07;19.20;99.90
58469;DHT22;44257;44.804;10.220;2023-04-03T11:32:43;19.10;99.90
58469;DHT22;44257;44.804;10.220;2023-04-03T11:35:14;19.00;99.90
58469;DHT22;44257;44.804;10.220;2023-04-03T11:37:50;18.90;99.90
58469;DHT22;44257;44.804;10.220;2023-04-03T11:40:27;18.90;99.90
58469;DHT22;44257;44.804;10.220;2023-04-03T11:43:04;19.00;99.90
58469;DHT22;44257;44.804;10.220;2023-04-03T11:45:38;19.20;99.90
58469;DHT22;44257;44.804;10.220;2023-04-03T11:50:47;19.50;99.90
58469;DHT22;44257;44.804;10.220;2023-04-03T11:55:44;19.90;99.50
58469;DHT22;44257;44.804;10.220;2023-04-03T11:58:18;20.00;98.20
58469;DHT22;44257;44.804;10.220;2023-04-03T12:16:32;18.60;98.20
58469;DHT22;44257;44.804;10.220;2023-04-03T12:26:40;18.70;97.40
58469;DHT22;44257;44.804;10.220;2023-04-03T12:29:20;18.80;97.50
58469;DHT22;44257;44.804;10.220;2023-04-03T12:40:25;19.10;98.10
58469;DHT22;44257;44.804;10.220;2023-04-03T12:45:51;19.20;97.70
58469;DHT22;44257;44.804;10.220;2023-04-03T12:48:25;19.20;95.90
58469;DHT22;44257;44.804;10.220;2023-04-03T12:50:51;19.20;96.20
58469;DHT22;44257;44.804;10.220;2023-04-03T12:55:46;19.20;95.30
58469;DHT22;44257;44.804;10.220;2023-04-03T12:58:26;19.00;96.10
58469;DHT22;44257;44.804;10.220;2023-04-03T13:01:03;18.90;96.60
58469;DHT22;44257;44.804;10.220;2023-04-03T13:03:30;18.90;96.30
58469;DHT22;44257;44.804;10.220;2023-04-03T13:06:01;18.90;97.70
58469;DHT22;44257;44.804;10.220;2023-04-03T13:08:29;19.00;96.40
58469;DHT22;44257;44.804;10.220;2023-04-03T13:11:11;19.00;97.00
58469;DHT22;44257;44.804;10.220;2023-04-03T13:13:37;19.00;96.30
58469;DHT22;44257;44.804;10.220;2023-04-03T13:16:10;19.10;96.40
58469;DHT22;44257;44.804;10.220;2023-04-03T13:18:37;19.20;95.40
58469;DHT22;44257;44.804;10.220;2023-04-03T13:21:17;19.30;95.40
58469;DHT22;44257;44.804;10.220;2023-04-03T13:23:47;19.30;95.60
58469;DHT22;44257;44.804;10.220;2023-04-03T13:26:17;19.30;96.10
58469;DHT22;44257;44.804;10.220;2023-04-03T13:28:43;19.30;95.10
58469;DHT22;44257;44.804;10.220;2023-04-03T13:34:03;19.40;95.20
58469;DHT22;44257;44.804;10.220;2023-04-03T13:36:35;19.40;93.70
58469;DHT22;44257;44.804;10.220;2023-04-03T13:39:23;19.30;94.20
58469;DHT22;44257;44.804;10.220;2023-04-03T13:41:54;19.30;95.00
58469;DHT22;44257;44.804;10.220;2023-04-03T13:49:35;19.50;97.00
58469;DHT22;44257;44.804;10.220;2023-04-03T13:54:49;19.40;96.10
58469;DHT22;44257;44.804;10.220;2023-04-03T13:57:17;19.20;96.70
58469;DHT22;44257;44.804;10.220;2023-04-03T13:59:44;19.30;97.70
58469;DHT22;44257;44.804;10.220;2023-04-03T14:02:28;19.50;99.10
58469;DHT22;44257;44.804;10.220;2023-04-03T14:04:57;19.60;97.80
58469;DHT22;44257;44.804;10.220;2023-04-03T14:07:27;19.40;97.70
58469;DHT22;44257;44.804;10.220;2023-04-03T14:09:53;19.10;97.50
58469;DHT22;44257;44.804;10.220;2023-04-03T14:12:30;18.90;97.80
58469;DHT22;44257;44.804;10.220;2023-04-03T14:14:57;18.90;97.60
58469;DHT22;44257;44.804;10.220;2023-04-03T14:17:25;18.80;96.90
58469;DHT22;44257;44.804;10.220;2023-04-03T14:19:53;18.70;97.20
58469;DHT22;44257;44.804;10.220;2023-04-03T14:22:32;18.60;96.50
58469;DHT22;44257;44.804;10.220;2023-04-03T14:24:58;18.40;96.90
58469;DHT22;44257;44.804;10.220;2023-04-03T14:27:27;18.30;97.70
58469;DHT22;44257;44.804;10.220;2023-04-03T14:29:55;18.40;97.90
58469;DHT22;44257;44.804;10.220;2023-04-03T14:32:23;18.50;97.50
58469;DHT22;44257;44.804;10.220;2023-04-03T14:34:50;18.40;96.30
58469;DHT22;44257;44.804;10.220;2023-04-03T14:37:19;18.20;95.70
58469;DHT22;44257;44.804;10.220;2023-04-03T14:39:46;18.00;96.30
58469;DHT22;44257;44.804;10.220;2023-04-03T14:42:15;17.90;97.60
58469;DHT22;44257;44.804;10.220;2023-04-03T14:44:41;18.20;97.60
58469;DHT22;44257;44.804;10.220;2023-04-03T14:47:13;18.50;97.60
58469;DHT22;44257;44.804;10.220;2023-04-03T14:49:40;18.70;96.90
58469;DHT22;44257;44.804;10.220;2023-04-03T14:52:09;18.60;95.80
58469;DHT22;44257;44.804;10.220;2023-04-03T14:54:41;18.40;96.60
58469;DHT22;44257;44.804;10.220;2023-04-03T14:57:09;18.00;95.30
58469;DHT22;44257;44.804;10.220;2023-04-03T14:59:38;17.60;96.40
58469;DHT22;44257;44.804;10.220;2023-04-03T15:04:42;17.30;96.50
58469;DHT22;44257;44.804;10.220;2023-04-03T15:07:08;17.10;96.90
58469;DHT22;44257;44.804;10.220;2023-04-03T15:09:35;17.10;98.00
58469;DHT22;44257;44.804;10.220;2023-04-03T15:12:02;17.20;98.00
58469;DHT22;44257;44.804;10.220;2023-04-03T15:14:28;17.30;98.10
58469;DHT22;44257;44.804;10.220;2023-04-03T15:16:54;17.40;97.80
58469;DHT22;44257;44.804;10.220;2023-04-03T15:19:23;17.30;97.40
58469;DHT22;44257;44.804;10.220;2023-04-03T15:21:49;17.10;97.00
58469;DHT22;44257;44.804;10.220;2023-04-03T15:24:15;16.90;96.30
58469;DHT22;44257;44.804;10.220;2023-04-03T15:26:41;16.70;94.90
58469;DHT22;44257;44.804;10.220;2023-04-03T15:29:07;16.70;95.10
58469;DHT22;44257;44.804;10.220;2023-04-03T15:31:33;16.70;94.80
58469;DHT22;44257;44.804;10.220;2023-04-03T15:33:59;16.70;93.10
58469;DHT22;44257;44.804;10.220;2023-04-03T15:36:25;16.70;93.60
58469;DHT22;44257;44.804;10.220;2023-04-03T15:38:51;16.60;93.10
58469;DHT22;44257;44.804;10.220;2023-04-03T15:41:17;16.60;92.00
58469;DHT22;44257;44.804;10.220;2023-04-03T15:43:43;16.60;91.50
58469;DHT22;44257;44.804;10.220;2023-04-03T15:46:08;16.60;91.10
58469;DHT22;44257;44.804;10.220;2023-04-03T15:48:35;16.60;92.00
58469;DHT22;44257;44.804;10.220;2023-04-03T15:51:02;16.50;91.40
58469;DHT22;44257;44.804;10.220;2023-04-03T15:53:27;16.50;91.00
58469;DHT22;44257;44.804;10.220;2023-04-03T15:55:53;16.40;91.00
58469;DHT22;44257;44.804;10.220;2023-04-03T15:58:19;16.30;90.20
58469;DHT22;44257;44.804;10.220;2023-04-03T16:00:45;16.20;89.40
58469;DHT22;44257;44.804;10.220;2023-04-03T16:03:19;16.00;89.70
58469;DHT22;44257;44.804;10.220;2023-04-03T16:05:46;15.90;89.80
58469;DHT22;44257;44.804;10.220;2023-04-03T16:08:12;15.80;87.00
58469;DHT22;44257;44.804;10.220;2023-04-03T16:10:38;15.60;87.30
58469;DHT22;44257;44.804;10.220;2023-04-03T16:13:05;15.50;87.90
58469;DHT22;44257;44.804;10.220;2023-04-03T16:15:32;15.40;87.80
58469;DHT22;44257;44.804;10.220;2023-04-03T16:18:00;15.30;86.10
58469;DHT22;44257;44.804;10.220;2023-04-03T16:20:27;15.20;87.00
58469;DHT22;44257;44.804;10.220;2023-04-03T16:22:53;15.10;89.40
58469;DHT22;44257;44.804;10.220;2023-04-03T16:25:21;15.10;89.50
58469;DHT22;44257;44.804;10.220;2023-04-03T16:27:47;15.00;90.00
58469;DHT22;44257;44.804;10.220;2023-04-03T16:30:14;14.90;90.00
58469;DHT22;44257;44.804;10.220;2023-04-03T16:32:40;14.80;88.80
58469;DHT22;44257;44.804;10.220;2023-04-03T16:35:06;14.70;89.40
58469;DHT22;44257;44.804;10.220;2023-04-03T16:37:33;14.60;89.00
58469;DHT22;44257;44.804;10.220;2023-04-03T16:39:59;14.60;88.50
58469;DHT22;44257;44.804;10.220;2023-04-03T16:42:25;14.60;88.60
58469;DHT22;44257;44.804;10.220;2023-04-03T16:44:51;14.50;88.20
58469;DHT22;44257;44.804;10.220;2023-04-03T16:47:17;14.40;87.60
58469;DHT22;44257;44.804;10.220;2023-04-03T16:49:45;14.40;89.00
58469;DHT22;44257;44.804;10.220;2023-04-03T16:52:11;14.20;89.10
58469;DHT22;44257;44.804;10.220;2023-04-03T16:54:37;14.20;90.10
58469;DHT22;44257;44.804;10.220;2023-04-03T16:57:03;14.10;90.10
58469;DHT22;44257;44.804;10.220;2023-04-03T16:59:29;14.00;90.00
58469;DHT22;44257;44.804;10.220;2023-04-03T17:01:55;13.90;90.50
58469;DHT22;44257;44.804;10.220;2023-04-03T17:04:21;13.80;90.50
58469;DHT22;44257;44.804;10.220;2023-04-03T17:06:47;13.70;90.70
58469;DHT22;44257;44.804;10.220;2023-04-03T17:09:14;13.60;90.50
58469;DHT22;44257;44.804;10.220;2023-04-03T17:11:40;13.60;91.10
58469;DHT22;44257;44.804;10.220;2023-04-03T17:14:06;13.50;91.10
58469;DHT22;44257;44.804;10.220;2023-04-03T17:16:34;13.40;91.70
58469;DHT22;44257;44.804;10.220;2023-04-03T17:19:00;13.30;90.90
58469;DHT22;44257;44.804;10.220;2023-04-03T17:21:27;13.20;90.70
58469;DHT22;44257;44.804;10.220;2023-04-03T17:23:59;13.00;90.20
58469;DHT22;44257;44.804;10.220;2023-04-03T17:26:26;12.90;90.20
58469;DHT22;44257;44.804;10.220;2023-04-03T17:28:52;12.80;90.10